createdAt,value
2018-12-22T00:05:18.626Z,99.90
2018-12-22T00:06:31.148Z,99.90
2018-12-22T00:07:44.000Z,99.90
2018-12-22T00:08:56.827Z,99.90
2018-12-22T00:10:09.377Z,99.90
2018-12-22T00:11:37.542Z,99.90
2018-12-22T00:12:49.987Z,99.90
2018-12-22T00:14:05.135Z,99.90
2018-12-22T00:15:18.828Z,99.90
2018-12-22T00:16:33.204Z,99.90
2018-12-22T00:17:46.754Z,99.90
2018-12-22T00:19:01.627Z,99.90
2018-12-22T00:20:18.572Z,99.90
2018-12-22T00:21:32.323Z,99.90
2018-12-22T00:22:44.715Z,99.90
2018-12-22T00:23:59.798Z,99.90
2018-12-22T00:25:12.468Z,99.90
2018-12-22T00:26:26.222Z,99.90
2018-12-22T00:27:39.323Z,99.90
2018-12-22T00:28:51.867Z,99.90
2018-12-22T00:30:07.333Z,99.90
2018-12-22T00:31:21.845Z,99.90
2018-12-22T00:32:34.439Z,99.90
2018-12-22T00:33:47.030Z,99.90
2018-12-22T00:35:00.047Z,99.90
2018-12-22T00:36:12.723Z,99.90
2018-12-22T00:37:25.478Z,99.90
2018-12-22T00:40:37.796Z,99.90
2018-12-22T00:43:50.921Z,99.90
2018-12-22T00:45:04.171Z,99.90
2018-12-22T00:46:17.603Z,99.90
2018-12-22T00:47:31.424Z,99.90
2018-12-22T00:48:44.267Z,99.90
2018-12-22T00:49:57.197Z,99.90
2018-12-22T00:51:09.968Z,99.90
2018-12-22T00:52:22.667Z,99.90
2018-12-22T00:53:35.681Z,99.90
2018-12-22T00:54:44.287Z,99.90
2018-12-22T00:55:59.078Z,99.90
2018-12-22T00:57:11.866Z,99.90
2018-12-22T00:58:30.696Z,99.90
2018-12-22T00:59:42.712Z,99.90
2018-12-22T01:00:57.271Z,99.90
2018-12-22T01:02:12.126Z,99.90
2018-12-22T01:03:20.974Z,99.90
2018-12-22T01:04:34.087Z,99.90
2018-12-22T01:05:49.058Z,99.90
2018-12-22T01:18:08.370Z,99.90
2018-12-22T01:19:24.394Z,99.90
2018-12-22T01:20:37.932Z,99.90
2018-12-22T01:21:50.393Z,99.90
2018-12-22T01:22:59.829Z,99.90
2018-12-22T01:24:12.712Z,99.90
2018-12-22T01:25:25.494Z,99.90
2018-12-22T01:26:38.829Z,99.90
2018-12-22T01:27:52.127Z,99.90
2018-12-22T01:29:05.686Z,99.90
2018-12-22T01:30:19.387Z,99.90
2018-12-22T01:31:32.871Z,99.90
2018-12-22T01:32:47.448Z,99.90
2018-12-22T01:34:02.407Z,99.90
2018-12-22T01:35:16.330Z,99.90
2018-12-22T01:36:32.944Z,99.90
2018-12-22T01:37:47.423Z,99.90
2018-12-22T01:39:01.119Z,99.90
2018-12-22T01:40:15.612Z,99.90
2018-12-22T01:41:31.179Z,99.90
2018-12-22T01:42:48.421Z,99.90
2018-12-22T01:44:01.379Z,99.90
2018-12-22T01:45:16.223Z,99.90
2018-12-22T01:46:29.110Z,99.90
2018-12-22T01:47:42.549Z,99.90
2018-12-22T01:48:56.010Z,99.90
2018-12-22T01:50:09.838Z,99.90
2018-12-22T01:51:22.669Z,99.90
2018-12-22T01:52:35.185Z,99.90
2018-12-22T01:53:48.718Z,99.90
2018-12-22T01:55:01.860Z,99.90
2018-12-22T01:56:14.648Z,99.90
2018-12-22T01:57:27.404Z,99.90
2018-12-22T01:58:47.626Z,99.90
2018-12-22T01:59:55.456Z,99.90
2018-12-22T02:01:08.764Z,99.90
2018-12-22T02:02:21.457Z,99.90
2018-12-22T02:03:34.147Z,99.90
2018-12-22T02:04:47.800Z,99.90
2018-12-22T02:05:56.790Z,99.90
2018-12-22T02:07:09.544Z,99.90
2018-12-22T02:08:27.434Z,99.90
2018-12-22T02:09:36.021Z,99.90
2018-12-22T02:10:48.877Z,99.90
2018-12-22T02:12:01.687Z,99.90
2018-12-22T02:13:14.863Z,99.90
2018-12-22T02:14:29.478Z,99.90
2018-12-22T02:15:42.354Z,99.90
2018-12-22T02:16:55.991Z,99.90
2018-12-22T02:18:22.014Z,99.90
2018-12-22T02:29:27.962Z,99.90
2018-12-22T02:30:40.657Z,99.90
2018-12-22T02:31:53.663Z,99.90
2018-12-22T02:33:06.123Z,99.90
2018-12-22T02:34:19.008Z,99.90
2018-12-22T02:35:32.272Z,99.90
2018-12-22T02:36:44.782Z,99.90
2018-12-22T02:37:59.197Z,99.90
2018-12-22T02:39:13.999Z,99.90
2018-12-22T02:40:27.588Z,99.90
2018-12-22T02:41:40.429Z,99.90
2018-12-22T02:45:05.008Z,99.90
2018-12-22T02:46:17.578Z,99.90
2018-12-22T02:47:30.664Z,99.90
2018-12-22T02:48:43.216Z,99.90
2018-12-22T02:49:57.513Z,99.90
2018-12-22T02:51:13.198Z,99.90
2018-12-22T02:52:26.554Z,99.90
2018-12-22T02:53:40.990Z,99.90
2018-12-22T02:54:55.096Z,99.90
2018-12-22T02:56:10.723Z,99.90
2018-12-22T02:57:24.157Z,99.90
2018-12-22T02:58:37.291Z,99.90
2018-12-22T02:59:52.230Z,99.90
2018-12-22T03:01:06.910Z,99.90
2018-12-22T03:02:21.358Z,99.90
2018-12-22T03:03:36.440Z,99.90
2018-12-22T03:04:49.915Z,99.90
2018-12-22T03:06:04.017Z,99.90
2018-12-22T03:07:17.909Z,99.90
2018-12-22T03:08:33.169Z,99.90
2018-12-22T03:09:47.686Z,99.90
2018-12-22T03:11:00.077Z,99.90
2018-12-22T03:12:35.400Z,99.90
2018-12-22T03:13:53.716Z,99.90
2018-12-22T03:15:06.704Z,99.90
2018-12-22T03:16:21.273Z,99.90
2018-12-22T03:17:34.585Z,99.90
2018-12-22T03:18:47.446Z,99.90
2018-12-22T03:20:01.592Z,99.90
2018-12-22T03:21:16.200Z,99.90
2018-12-22T03:22:29.772Z,99.90
2018-12-22T03:23:43.487Z,99.90
2018-12-22T03:24:56.973Z,99.90
2018-12-22T03:26:12.759Z,99.90
2018-12-22T03:27:27.979Z,99.90
2018-12-22T03:28:41.031Z,99.90
2018-12-22T03:29:54.956Z,99.90
2018-12-22T03:31:11.586Z,99.90
2018-12-22T03:32:24.394Z,99.90
2018-12-22T03:33:38.988Z,99.90
2018-12-22T03:34:53.717Z,99.90
2018-12-22T03:36:08.270Z,99.90
2018-12-22T03:37:25.469Z,99.90
2018-12-22T03:38:38.483Z,99.90
2018-12-22T03:39:53.118Z,99.90
2018-12-22T03:41:07.988Z,99.90
2018-12-22T03:42:22.958Z,99.90
2018-12-22T03:43:38.206Z,99.90
2018-12-22T03:44:53.475Z,99.90
2018-12-22T03:46:06.670Z,99.90
2018-12-22T03:47:22.290Z,99.90
2018-12-22T03:48:36.075Z,99.90
2018-12-22T03:49:50.287Z,99.90
2018-12-22T03:51:04.999Z,99.90
2018-12-22T03:52:19.994Z,99.90
2018-12-22T03:53:34.223Z,99.90
2018-12-22T03:54:49.273Z,99.90
2018-12-22T03:56:01.987Z,99.90
2018-12-22T03:57:18.275Z,99.90
2018-12-22T03:58:32.058Z,99.90
2018-12-22T03:59:45.831Z,99.90
2018-12-22T04:00:59.599Z,99.90
2018-12-22T04:02:09.119Z,99.90
2018-12-22T04:03:23.058Z,99.90
2018-12-22T04:04:36.943Z,99.90
2018-12-22T04:05:52.485Z,99.90
2018-12-22T04:07:08.167Z,99.90
2018-12-22T04:08:23.649Z,99.90
2018-12-22T04:09:40.160Z,99.90
2018-12-22T04:10:55.023Z,99.90
2018-12-22T04:12:09.029Z,99.90
2018-12-22T04:13:22.167Z,99.90
2018-12-22T04:14:37.657Z,99.90
2018-12-22T04:15:53.902Z,99.90
2018-12-22T04:17:11.361Z,99.90
2018-12-22T04:18:27.348Z,99.90
2018-12-22T04:19:43.285Z,99.90
2018-12-22T04:20:58.363Z,99.90
2018-12-22T04:22:13.427Z,99.90
2018-12-22T04:23:28.218Z,99.90
2018-12-22T04:24:42.346Z,99.90
2018-12-22T04:25:57.854Z,99.90
2018-12-22T04:27:11.185Z,99.90
2018-12-22T04:28:26.938Z,99.90
2018-12-22T04:29:40.930Z,99.90
2018-12-22T04:30:56.575Z,99.90
2018-12-22T04:41:51.331Z,99.90
2018-12-22T04:43:05.888Z,99.90
2018-12-22T04:44:20.044Z,99.90
2018-12-22T04:45:34.685Z,99.90
2018-12-22T04:46:50.998Z,99.90
2018-12-22T04:48:08.383Z,99.90
2018-12-22T04:49:24.438Z,99.90
2018-12-22T04:50:37.621Z,99.90
2018-12-22T04:51:55.827Z,99.90
2018-12-22T04:53:09.756Z,99.90
2018-12-22T04:54:23.269Z,99.90
2018-12-22T04:55:39.963Z,99.90
2018-12-22T04:56:55.420Z,99.90
2018-12-22T04:58:10.507Z,99.90
2018-12-22T04:59:24.195Z,99.90
2018-12-22T05:00:38.130Z,99.90
2018-12-22T05:01:51.544Z,99.90
2018-12-22T05:03:05.814Z,99.90
2018-12-22T05:04:18.975Z,99.90
2018-12-22T05:05:40.929Z,99.90
2018-12-22T05:06:53.518Z,99.90
2018-12-22T05:08:06.682Z,99.90
2018-12-22T05:09:19.829Z,99.90
2018-12-22T05:10:33.449Z,99.90
2018-12-22T05:11:47.150Z,99.90
2018-12-22T05:13:00.499Z,99.90
2018-12-22T05:14:15.155Z,99.90
2018-12-22T05:15:29.686Z,99.90
2018-12-22T05:16:43.581Z,99.90
2018-12-22T05:17:56.945Z,99.90
2018-12-22T05:19:09.631Z,99.90
2018-12-22T05:20:22.341Z,99.90
2018-12-22T05:21:35.163Z,99.90
2018-12-22T05:22:47.648Z,99.90
2018-12-22T05:24:18.756Z,99.90
2018-12-22T05:25:31.390Z,99.90
2018-12-22T05:26:44.212Z,99.90
2018-12-22T05:27:58.887Z,99.90
2018-12-22T05:29:14.617Z,99.90
2018-12-22T05:30:29.369Z,99.90
2018-12-22T05:31:44.508Z,99.90
2018-12-22T05:32:59.105Z,99.90
2018-12-22T05:34:13.067Z,99.90
2018-12-22T05:35:28.375Z,99.90
2018-12-22T05:36:43.013Z,99.90
2018-12-22T05:37:58.500Z,99.90
2018-12-22T05:39:13.325Z,99.90
2018-12-22T05:40:27.639Z,99.90
2018-12-22T05:41:41.798Z,99.90
2018-12-22T05:42:56.150Z,99.90
2018-12-22T05:44:10.953Z,99.90
2018-12-22T05:45:25.404Z,99.90
2018-12-22T05:46:40.369Z,99.90
2018-12-22T05:47:54.878Z,99.90
2018-12-22T05:49:07.493Z,99.90
2018-12-22T05:50:20.093Z,99.90
2018-12-22T05:51:34.938Z,99.90
2018-12-22T05:52:47.680Z,99.90
2018-12-22T05:54:02.774Z,99.90
2018-12-22T05:55:15.547Z,99.90
2018-12-22T05:56:29.919Z,99.90
2018-12-22T05:57:43.590Z,99.90
2018-12-22T05:58:57.022Z,99.90
2018-12-22T06:00:10.719Z,99.90
2018-12-22T06:01:26.358Z,99.90
2018-12-22T06:02:39.719Z,99.90
2018-12-22T06:03:52.521Z,99.90
2018-12-22T06:05:07.829Z,99.90
2018-12-22T06:06:21.196Z,99.90
2018-12-22T06:07:33.862Z,99.90
2018-12-22T06:08:46.791Z,99.90
2018-12-22T06:10:02.486Z,99.90
2018-12-22T06:11:15.129Z,99.90
2018-12-22T06:12:27.946Z,99.90
2018-12-22T06:13:42.726Z,99.90
2018-12-22T06:14:55.222Z,99.90
2018-12-22T06:16:09.240Z,99.90
2018-12-22T06:17:22.350Z,99.90
2018-12-22T06:18:36.731Z,99.90
2018-12-22T06:19:50.095Z,99.90
2018-12-22T06:21:03.985Z,99.90
2018-12-22T06:22:18.500Z,99.90
2018-12-22T06:23:30.972Z,99.90
2018-12-22T06:24:52.820Z,99.90
2018-12-22T06:26:05.356Z,99.90
2018-12-22T06:27:18.234Z,99.90
2018-12-22T06:28:30.840Z,99.90
2018-12-22T06:29:43.927Z,99.90
2018-12-22T06:30:56.717Z,99.90
2018-12-22T06:32:09.358Z,99.90
2018-12-22T06:33:49.823Z,99.90
2018-12-22T06:35:02.901Z,99.90
2018-12-22T06:36:15.709Z,99.90
2018-12-22T06:37:29.344Z,99.90
2018-12-22T06:38:44.203Z,99.90
2018-12-22T06:39:56.970Z,99.90
2018-12-22T06:41:09.752Z,99.90
2018-12-22T06:42:23.583Z,99.90
2018-12-22T06:43:36.633Z,99.90
2018-12-22T06:44:50.217Z,99.90
2018-12-22T06:46:04.600Z,99.90
2018-12-22T06:47:19.013Z,99.90
2018-12-22T06:48:34.057Z,99.90
2018-12-22T06:49:47.001Z,99.90
2018-12-22T06:51:35.763Z,99.90
2018-12-22T06:52:48.291Z,99.90
2018-12-22T06:56:07.914Z,99.90
2018-12-22T06:57:21.996Z,99.90
2018-12-22T06:58:35.809Z,99.90
2018-12-22T06:59:48.693Z,99.90
2018-12-22T07:01:02.377Z,99.90
2018-12-22T07:02:24.338Z,99.90
2018-12-22T07:03:36.904Z,99.90
2018-12-22T07:04:49.920Z,99.90
2018-12-22T07:06:03.259Z,99.90
2018-12-22T07:07:17.187Z,99.90
2018-12-22T07:08:31.313Z,99.90
2018-12-22T07:09:44.169Z,99.90
2018-12-22T07:10:56.813Z,99.90
2018-12-22T07:12:19.076Z,99.90
2018-12-22T07:13:34.011Z,99.90
2018-12-22T07:14:47.667Z,99.90
2018-12-22T07:16:00.427Z,99.90
2018-12-22T07:17:13.678Z,99.90
2018-12-22T07:18:26.522Z,99.90
2018-12-22T07:19:40.786Z,99.90
2018-12-22T07:20:53.520Z,99.90
2018-12-22T07:22:06.858Z,99.90
2018-12-22T07:23:20.590Z,99.90
2018-12-22T07:24:34.116Z,99.90
2018-12-22T07:25:47.012Z,99.90
2018-12-22T07:26:59.930Z,99.90
2018-12-22T07:28:13.577Z,99.90
2018-12-22T07:29:27.284Z,99.90
2018-12-22T07:30:42.011Z,99.90
2018-12-22T07:31:56.070Z,99.90
2018-12-22T07:33:09.833Z,99.90
2018-12-22T07:34:23.004Z,99.90
2018-12-22T07:35:36.645Z,99.90
2018-12-22T07:36:50.621Z,99.90
2018-12-22T07:38:05.170Z,99.90
2018-12-22T07:39:18.851Z,99.90
2018-12-22T07:40:34.916Z,99.90
2018-12-22T07:41:50.996Z,99.90
2018-12-22T07:43:06.359Z,99.90
2018-12-22T07:44:21.144Z,99.90
2018-12-22T07:45:36.437Z,99.90
2018-12-22T07:46:51.616Z,99.90
2018-12-22T07:48:07.298Z,99.90
2018-12-22T07:49:22.717Z,99.90
2018-12-22T07:50:38.458Z,99.90
2018-12-22T07:51:53.743Z,99.90
2018-12-22T07:53:07.616Z,99.90
2018-12-22T07:54:21.154Z,99.90
2018-12-22T07:55:35.224Z,99.90
2018-12-22T07:56:49.299Z,99.90
2018-12-22T07:58:05.403Z,99.90
2018-12-22T07:59:21.613Z,99.90
2018-12-22T08:00:35.869Z,99.90
2018-12-22T08:01:48.658Z,99.90
2018-12-22T08:03:01.876Z,99.90
2018-12-22T08:04:16.921Z,99.90
2018-12-22T08:05:38.716Z,99.90
2018-12-22T08:06:48.760Z,99.90
2018-12-22T08:08:03.814Z,99.90
2018-12-22T08:09:16.443Z,99.90
2018-12-22T08:10:26.542Z,99.90
2018-12-22T08:11:40.022Z,99.90
2018-12-22T08:12:54.362Z,99.90
2018-12-22T08:14:07.825Z,99.90
2018-12-22T08:15:22.755Z,99.90
2018-12-22T08:16:35.877Z,99.90
2018-12-22T08:17:48.789Z,99.90
2018-12-22T08:19:01.528Z,99.90
2018-12-22T08:20:14.447Z,99.90
2018-12-22T08:21:27.301Z,99.90
2018-12-22T08:22:40.150Z,99.90
2018-12-22T08:23:52.934Z,99.90
2018-12-22T08:25:05.931Z,99.90
2018-12-22T08:26:18.908Z,99.90
2018-12-22T08:27:32.309Z,99.90
2018-12-22T08:28:45.245Z,99.90
2018-12-22T08:29:58.748Z,99.90
2018-12-22T08:31:12.094Z,99.90
2018-12-22T08:32:25.045Z,99.90
2018-12-22T08:33:37.856Z,99.90
2018-12-22T08:34:50.682Z,99.90
2018-12-22T08:36:04.618Z,99.90
2018-12-22T08:37:17.500Z,99.90
2018-12-22T08:38:30.234Z,99.90
2018-12-22T08:39:43.189Z,99.90
2018-12-22T08:40:56.094Z,99.90
2018-12-22T08:42:11.063Z,99.90
2018-12-22T08:43:23.482Z,99.90
2018-12-22T08:44:36.326Z,99.90
2018-12-22T08:52:23.613Z,99.90
2018-12-22T08:53:37.226Z,99.90
2018-12-22T08:54:52.545Z,99.90
2018-12-22T08:56:06.335Z,99.90
2018-12-22T08:57:20.193Z,99.90
2018-12-22T08:58:36.418Z,99.90
2018-12-22T08:59:50.923Z,99.90
2018-12-22T09:01:06.662Z,99.90
2018-12-22T09:02:22.588Z,99.90
2018-12-22T09:03:38.084Z,99.90
2018-12-22T09:04:53.760Z,99.90
2018-12-22T09:06:09.162Z,99.90
2018-12-22T09:07:22.254Z,99.90
2018-12-22T09:08:35.055Z,99.90
2018-12-22T09:09:50.542Z,99.90
2018-12-22T09:11:08.506Z,99.90
2018-12-22T09:12:23.637Z,99.90
2018-12-22T09:13:36.588Z,99.90
2018-12-22T09:14:49.007Z,99.90
2018-12-22T09:16:23.866Z,99.90
2018-12-22T09:17:37.453Z,99.90
2018-12-22T09:18:50.846Z,99.90
2018-12-22T09:20:06.231Z,99.90
2018-12-22T09:21:20.400Z,99.90
2018-12-22T09:22:33.753Z,99.90
2018-12-22T09:23:48.641Z,99.90
2018-12-22T09:25:04.671Z,99.90
2018-12-22T09:26:18.998Z,99.90
2018-12-22T09:27:33.431Z,99.90
2018-12-22T09:28:47.695Z,99.90
2018-12-22T09:30:02.182Z,99.90
2018-12-22T09:31:17.054Z,99.90
2018-12-22T09:32:32.760Z,99.90
2018-12-22T09:33:47.712Z,99.90
2018-12-22T09:35:02.558Z,99.90
2018-12-22T09:36:17.610Z,99.90
2018-12-22T09:37:32.365Z,99.90
2018-12-22T09:38:47.109Z,99.90
2018-12-22T09:40:02.819Z,98.90
2018-12-22T09:41:18.674Z,98.80
2018-12-22T09:42:31.483Z,99.40
2018-12-22T09:45:55.809Z,99.20
2018-12-22T09:47:08.501Z,99.10
2018-12-22T09:48:21.814Z,98.70
2018-12-22T09:49:35.602Z,98.30
2018-12-22T09:50:50.660Z,98.80
2018-12-22T09:52:04.081Z,99.00
2018-12-22T09:53:16.710Z,99.20
2018-12-22T09:54:32.069Z,98.80
2018-12-22T09:55:45.076Z,98.40
2018-12-22T09:56:59.032Z,97.70
2018-12-22T09:58:14.213Z,97.30
2018-12-22T09:59:29.773Z,96.90
2018-12-22T10:00:44.581Z,96.70
2018-12-22T10:01:57.961Z,96.50
2018-12-22T10:03:11.882Z,96.00
2018-12-22T10:04:28.441Z,96.30
2018-12-22T10:05:45.192Z,97.00
2018-12-22T10:06:58.418Z,96.30
2018-12-22T10:08:12.075Z,96.60
2018-12-22T10:09:24.966Z,96.70
2018-12-22T10:10:40.486Z,96.40
2018-12-22T10:11:55.757Z,95.40
2018-12-22T10:13:08.925Z,95.00
2018-12-22T10:14:21.690Z,94.70
2018-12-22T10:15:30.457Z,94.70
2018-12-22T10:17:04.922Z,95.10
2018-12-22T10:18:18.871Z,93.90
2018-12-22T10:19:33.086Z,93.60
2018-12-22T10:20:45.581Z,93.40
2018-12-22T10:21:58.550Z,93.60
2018-12-22T10:23:17.051Z,93.60
2018-12-22T10:24:33.306Z,93.10
2018-12-22T10:25:47.458Z,93.70
2018-12-22T10:27:03.477Z,93.70
2018-12-22T10:28:18.521Z,93.50
2018-12-22T10:29:33.858Z,94.00
2018-12-22T10:30:52.963Z,93.90
2018-12-22T10:32:15.395Z,94.30
2018-12-22T10:33:31.220Z,94.00
2018-12-22T10:34:45.057Z,94.10
2018-12-22T10:35:59.279Z,93.80
2018-12-22T10:37:12.657Z,93.80
2018-12-22T10:38:27.243Z,93.90
2018-12-22T10:39:41.702Z,94.10
2018-12-22T10:40:58.913Z,94.00
2018-12-22T10:42:14.439Z,93.90
2018-12-22T10:43:27.355Z,93.50
2018-12-22T10:44:40.623Z,93.40
2018-12-22T10:45:53.151Z,93.40
2018-12-22T10:47:06.109Z,93.50
2018-12-22T10:48:18.928Z,93.60
2018-12-22T10:49:31.750Z,93.40
2018-12-22T10:50:44.856Z,93.50
2018-12-22T10:51:58.188Z,93.80
2018-12-22T10:53:13.522Z,93.50
2018-12-22T10:59:54.485Z,94.00
2018-12-22T11:01:07.246Z,93.70
2018-12-22T11:02:19.886Z,93.50
2018-12-22T11:03:35.528Z,93.90
2018-12-22T11:04:55.113Z,93.50
2018-12-22T11:06:11.936Z,93.70
2018-12-22T11:07:29.750Z,93.80
2018-12-22T11:08:45.692Z,93.80
2018-12-22T11:10:00.278Z,93.80
2018-12-22T11:11:16.474Z,94.50
2018-12-22T11:12:32.190Z,94.70
2018-12-22T11:13:46.140Z,94.80
2018-12-22T11:14:59.328Z,94.00
2018-12-22T11:16:12.052Z,94.20
2018-12-22T11:17:24.908Z,94.00
2018-12-22T11:18:37.912Z,94.00
2018-12-22T11:19:50.652Z,94.00
2018-12-22T11:21:03.598Z,93.70
2018-12-22T11:22:16.540Z,93.50
2018-12-22T11:23:29.562Z,93.60
2018-12-22T11:24:42.525Z,94.10
2018-12-22T11:25:55.747Z,93.50
2018-12-22T11:27:08.881Z,93.70
2018-12-22T11:28:22.282Z,93.40
2018-12-22T11:29:36.334Z,93.40
2018-12-22T11:30:49.685Z,93.10
2018-12-22T11:32:02.429Z,93.20
2018-12-22T11:33:15.621Z,93.20
2018-12-22T11:34:28.875Z,93.30
2018-12-22T11:35:41.827Z,93.00
2018-12-22T11:36:54.527Z,92.90
2018-12-22T11:38:09.829Z,93.10
2018-12-22T11:39:22.892Z,93.40
2018-12-22T11:40:35.481Z,93.20
2018-12-22T11:41:48.552Z,92.80
2018-12-22T11:43:04.299Z,93.10
2018-12-22T11:44:20.310Z,92.90
2018-12-22T11:45:33.753Z,92.50
2018-12-22T11:46:46.754Z,92.50
2018-12-22T11:48:23.518Z,92.60
2018-12-22T11:49:42.153Z,92.40
2018-12-22T11:50:56.560Z,92.30
2018-12-22T11:52:09.723Z,92.00
2018-12-22T11:53:24.444Z,92.20
2018-12-22T11:54:38.221Z,92.40
2018-12-22T11:55:52.487Z,92.20
2018-12-22T11:57:06.120Z,92.20
2018-12-22T11:58:21.427Z,91.90
2018-12-22T11:59:35.712Z,91.70
2018-12-22T12:09:35.936Z,92.20
2018-12-22T12:10:50.559Z,92.20
2018-12-22T12:12:04.271Z,92.10
2018-12-22T12:13:20.894Z,92.10
2018-12-22T12:14:33.908Z,92.20
2018-12-22T12:15:53.311Z,92.20
2018-12-22T12:17:23.108Z,92.20
2018-12-22T12:19:07.229Z,92.40
2018-12-22T12:20:22.513Z,92.80
2018-12-22T12:21:35.962Z,92.60
2018-12-22T12:22:48.733Z,93.10
2018-12-22T12:24:01.643Z,93.20
2018-12-22T12:25:14.440Z,93.20
2018-12-22T12:26:27.069Z,93.30
2018-12-22T12:27:40.016Z,93.40
2018-12-22T12:28:53.680Z,93.40
2018-12-22T12:30:08.775Z,93.40
2018-12-22T12:31:21.404Z,93.40
2018-12-22T12:32:35.001Z,93.40
2018-12-22T12:33:47.912Z,93.60
2018-12-22T12:35:01.177Z,93.50
2018-12-22T12:36:13.616Z,93.80
2018-12-22T12:37:28.402Z,93.90
2018-12-22T12:38:39.496Z,93.60
2018-12-22T12:39:54.564Z,93.70
2018-12-22T12:41:10.602Z,94.10
2018-12-22T12:42:25.316Z,93.80
2018-12-22T12:43:40.300Z,93.80
2018-12-22T12:44:53.528Z,93.60
2018-12-22T12:46:07.295Z,93.70
2018-12-22T12:47:20.059Z,93.60
2018-12-22T12:48:37.279Z,93.70
2018-12-22T12:49:51.554Z,93.60
2018-12-22T12:51:04.859Z,93.40
2018-12-22T12:52:17.751Z,93.70
2018-12-22T12:53:30.497Z,93.70
2018-12-22T12:54:43.447Z,93.80
2018-12-22T12:55:56.421Z,93.90
2018-12-22T12:57:09.692Z,93.80
2018-12-22T12:58:22.981Z,93.90
2018-12-22T12:59:36.026Z,93.90
2018-12-22T13:00:51.700Z,93.90
2018-12-22T13:02:08.680Z,93.80
2018-12-22T13:03:23.541Z,93.80
2018-12-22T13:04:38.264Z,93.50
2018-12-22T13:05:51.567Z,93.80
2018-12-22T13:07:04.243Z,93.80
2018-12-22T13:08:17.084Z,93.80
2018-12-22T13:09:30.086Z,94.20
2018-12-22T13:10:42.835Z,94.50
2018-12-22T13:11:56.943Z,94.30
2018-12-22T13:14:19.984Z,94.20
2018-12-22T13:15:32.514Z,94.20
2018-12-22T13:16:45.285Z,94.20
2018-12-22T13:17:58.098Z,94.20
2018-12-22T13:19:07.930Z,94.10
2018-12-22T13:20:21.092Z,94.10
2018-12-22T13:21:35.243Z,94.00
2018-12-22T13:22:48.420Z,93.80
2018-12-22T13:24:01.213Z,93.80
2018-12-22T13:25:14.528Z,93.90
2018-12-22T13:26:36.763Z,93.60
2018-12-22T13:27:48.130Z,93.50
2018-12-22T13:29:00.926Z,93.50
2018-12-22T13:30:14.845Z,93.30
2018-12-22T13:31:30.019Z,93.30
2018-12-22T13:32:43.299Z,93.40
2018-12-22T13:33:55.951Z,93.50
2018-12-22T13:35:36.250Z,93.80
2018-12-22T13:36:49.418Z,93.40
2018-12-22T13:38:04.393Z,93.40
2018-12-22T13:39:21.433Z,93.60
2018-12-22T13:40:36.524Z,93.30
2018-12-22T13:41:49.568Z,93.30
2018-12-22T13:43:21.610Z,93.40
2018-12-22T13:44:37.056Z,93.60
2018-12-22T13:45:54.135Z,93.40
2018-12-22T13:47:07.229Z,93.30
2018-12-22T13:48:20.438Z,93.30
2018-12-22T13:49:33.459Z,93.30
2018-12-22T13:50:46.430Z,93.10
2018-12-22T13:51:59.952Z,93.30
2018-12-22T13:53:13.012Z,93.10
2018-12-22T13:54:27.175Z,93.20
2018-12-22T13:55:41.228Z,93.40
2018-12-22T13:56:56.655Z,93.30
2018-12-22T13:58:10.716Z,93.30
2018-12-22T13:59:23.249Z,93.40
2018-12-22T14:00:40.271Z,93.50
2018-12-22T14:01:57.981Z,93.70
2018-12-22T14:03:15.580Z,93.50
2018-12-22T14:04:29.427Z,93.40
2018-12-22T14:05:42.251Z,93.60
2018-12-22T14:06:55.192Z,93.30
2018-12-22T14:08:08.104Z,93.20
2018-12-22T14:09:22.078Z,93.30
2018-12-22T14:10:35.010Z,93.30
2018-12-22T14:11:48.367Z,93.30
2018-12-22T14:13:01.946Z,93.30
2018-12-22T14:14:22.600Z,93.40
2018-12-22T14:15:39.113Z,93.40
2018-12-22T14:17:35.279Z,93.50
2018-12-22T14:18:54.285Z,93.60
2018-12-22T14:20:11.678Z,93.70
2018-12-22T14:21:26.840Z,93.70
2018-12-22T14:22:43.619Z,93.80
2018-12-22T14:24:34.559Z,93.60
2018-12-22T14:25:48.274Z,93.50
2018-12-22T14:27:01.808Z,94.00
2018-12-22T14:28:15.039Z,94.60
2018-12-22T14:29:30.060Z,95.60
2018-12-22T14:30:47.451Z,96.60
2018-12-22T14:32:00.402Z,97.60
2018-12-22T14:33:13.314Z,97.70
2018-12-22T14:34:32.098Z,98.30
2018-12-22T14:35:53.281Z,98.90
2018-12-22T14:37:08.829Z,99.20
2018-12-22T14:38:23.301Z,99.00
2018-12-22T14:39:37.759Z,99.40
2018-12-22T14:40:51.788Z,99.10
2018-12-22T14:42:06.298Z,99.20
2018-12-22T14:43:19.781Z,99.10
2018-12-22T14:44:33.519Z,99.20
2018-12-22T14:45:49.655Z,98.70
2018-12-22T14:47:05.172Z,98.80
2018-12-22T14:48:20.672Z,98.60
2018-12-22T14:49:36.128Z,99.20
2018-12-22T14:50:50.797Z,99.00
2018-12-22T14:52:08.068Z,98.70
2018-12-22T14:53:22.570Z,98.70
2018-12-22T14:54:38.717Z,98.80
2018-12-22T14:55:54.695Z,99.00
2018-12-22T14:57:07.385Z,99.20
2018-12-22T14:58:24.487Z,99.10
2018-12-22T14:59:38.422Z,99.10
2018-12-22T15:00:51.312Z,99.20
2018-12-22T15:02:04.078Z,99.10
2018-12-22T15:03:17.501Z,98.80
2018-12-22T15:04:33.914Z,99.10
2018-12-22T15:05:48.852Z,98.70
2018-12-22T15:07:03.153Z,98.70
2018-12-22T15:08:16.330Z,98.80
2018-12-22T15:09:29.144Z,98.90
2018-12-22T15:10:42.088Z,99.00
2018-12-22T15:11:55.009Z,98.80
2018-12-22T15:13:07.725Z,98.50
2018-12-22T15:14:21.805Z,99.10
2018-12-22T15:15:34.428Z,99.10
2018-12-22T15:16:48.576Z,99.20
2018-12-22T15:18:03.438Z,99.10
2018-12-22T15:19:17.510Z,99.00
2018-12-22T15:20:32.587Z,99.00
2018-12-22T15:21:46.422Z,99.00
2018-12-22T15:22:59.911Z,98.70
2018-12-22T15:24:10.315Z,98.60
2018-12-22T15:25:23.506Z,98.50
2018-12-22T15:26:36.398Z,98.80
2018-12-22T15:27:49.194Z,98.70
2018-12-22T15:29:02.364Z,98.30
2018-12-22T15:30:18.993Z,98.10
2018-12-22T15:31:33.947Z,98.30
2018-12-22T15:32:54.306Z,98.10
2018-12-22T15:34:09.248Z,97.70
2018-12-22T15:35:22.299Z,97.40
2018-12-22T15:36:36.068Z,97.60
2018-12-22T15:37:49.025Z,97.40
2018-12-22T15:39:01.573Z,97.20
2018-12-22T15:40:16.402Z,97.70
2018-12-22T15:41:29.013Z,97.40
2018-12-22T15:42:42.416Z,97.40
2018-12-22T15:43:56.097Z,97.20
2018-12-22T15:45:13.944Z,96.60
2018-12-22T15:46:26.781Z,96.50
2018-12-22T15:47:41.114Z,96.60
2018-12-22T15:48:56.114Z,97.20
2018-12-22T15:50:12.764Z,97.20
2018-12-22T15:51:27.441Z,97.40
2018-12-22T15:52:40.972Z,97.50
2018-12-22T15:53:54.559Z,98.20
2018-12-22T15:55:10.476Z,97.60
2018-12-22T15:56:27.356Z,97.40
2018-12-22T15:57:43.050Z,97.60
2018-12-22T15:58:59.133Z,97.80
2018-12-22T16:00:15.768Z,98.10
2018-12-22T16:01:31.388Z,98.10
2018-12-22T16:02:41.975Z,98.40
2018-12-22T16:03:58.043Z,98.40
2018-12-22T16:05:14.162Z,98.50
2018-12-22T16:06:31.190Z,97.50
2018-12-22T16:07:45.822Z,97.40
2018-12-22T16:08:58.423Z,97.20
2018-12-22T16:10:13.250Z,97.00
2018-12-22T16:11:26.330Z,97.10
2018-12-22T16:12:38.917Z,97.40
2018-12-22T16:13:52.788Z,97.10
2018-12-22T16:15:09.546Z,96.60
2018-12-22T16:16:23.694Z,96.80
2018-12-22T16:17:36.013Z,96.80
2018-12-22T16:18:49.462Z,96.50
2018-12-22T16:20:02.733Z,96.50
2018-12-22T16:21:17.130Z,96.50
2018-12-22T16:22:29.822Z,96.20
2018-12-22T16:23:43.350Z,96.40
2018-12-22T16:24:56.430Z,96.20
2018-12-22T16:26:10.202Z,96.50
2018-12-22T16:27:23.077Z,96.40
2018-12-22T16:28:39.949Z,96.60
2018-12-22T16:29:56.784Z,96.70
2018-12-22T16:31:10.735Z,96.50
2018-12-22T16:32:25.890Z,96.60
2018-12-22T16:33:38.862Z,96.60
2018-12-22T16:34:52.421Z,96.70
2018-12-22T16:36:05.659Z,96.80
2018-12-22T16:37:21.083Z,96.40
2018-12-22T16:38:35.561Z,96.50
2018-12-22T16:39:50.508Z,96.20
2018-12-22T16:41:05.532Z,96.10
2018-12-22T16:42:23.300Z,96.10
2018-12-22T16:43:37.065Z,96.10
2018-12-22T16:44:52.295Z,96.20
2018-12-22T16:46:07.419Z,96.50
2018-12-22T16:47:21.033Z,96.50
2018-12-22T16:48:37.452Z,96.60
2018-12-22T16:49:51.772Z,96.80
2018-12-22T16:51:02.356Z,96.80
2018-12-22T16:52:15.798Z,97.10
2018-12-22T16:53:29.189Z,97.60
2018-12-22T16:54:43.753Z,97.80
2018-12-22T16:55:57.777Z,97.80
2018-12-22T16:57:13.699Z,98.20
2018-12-22T16:58:32.355Z,98.30
2018-12-22T16:59:48.402Z,98.40
2018-12-22T17:01:26.470Z,98.60
2018-12-22T17:02:49.800Z,98.70
2018-12-22T17:04:04.689Z,98.90
2018-12-22T17:05:19.121Z,99.10
2018-12-22T17:06:36.245Z,99.40
2018-12-22T17:07:52.715Z,99.40
2018-12-22T17:09:11.020Z,99.40